Carlsbad, NM (88220)

10:08 AM MDT on August 01, 2014 (GMT -0600)
KNMCARLS3 Elev 3158 ft | 32.43 °N, 104.25 °W | Change Station

Current weather conditions updated 1 minute ago

Overcast
Overcast
71.7 °F
Feels Like 72 °F
N
0.0
Wind Variable Wind from SSE
Gusts 1.0 mph

Today is forecast to be Warmer than yesterday. Chance of late night showers tonight.

Today
High -- | Low -- °F
--% Chance of Precip.
Yesterday
High -- | Low -- °F
Precip. -- in
6:11 AM 7:54 PM
Waxing Crescent, 27% visible
Pressure 30.06 in
Visibility 4.0 miles
Clouds Mostly Cloudy 7000 ft
Overcast 8000 ft
Heat Index 72 °F
Dew Point 65 °F
Humidity 79%
Rainfall 0.00 in
Snow Depth Not available.
UV 2 out of 12
Pollen 4.40 out of 12
Air Quality Not available.
Flu Activity Not available.
METAR KCNM 011553Z AUTO 17008KT 4SM -RA BKN070 OVC080 21/18 A3020 RMK AO2 RAB44 SLP177 P0000 T02110178

More Conditions Fewer Conditions

Pressure 30.06 in
Visibility 4.0 miles
Clouds Mostly Cloudy 7000 ft
Overcast 8000 ft
Heat Index 72 °F
Dew Point 65 °F
Humidity 79%
Rainfall 0.00 in
Snow Depth Not available.
UV 2 out of 12
Pollen 4.40 out of 12
Air Quality Not available.
Flu Activity Not available.
METAR KCNM 011553Z AUTO 17008KT 4SM -RA BKN070 OVC080 21/18 A3020 RMK AO2 RAB44 SLP177 P0000 T02110178

More Conditions Fewer Conditions

10-Day Weather Forecast

Almanac

Astronomy

Aug. 01, 2014 Rise Set
Actual Time 6:11 AM MDT 7:54 PM MDT
Civil Twilight 5:44 AM MDT 8:21 PM MDT
Nautical Twilight 5:12 AM MDT 8:53 PM MDT
Astronomical Twilight 4:38 AM MDT 9:27 PM MDT
Moon 11:16 AM MDT 11:03 PM MDT
Length of Visible Light 14h 36m
Length of Day
13h 42m
Tomorrow will be 1m 29s shorter.
Waxing Crescent, 27% of the Moon is Illuminated
Today
Waxing Crescent
Aug 3
First Quarter
Aug 10
Full
Aug 17
Last Quarter
Aug 25
New

Today's Extremes

State Highs State Lows

Community

WunderPhotos

Upload Photos

1,739,621 photos uploaded!

Nearby

Snow Depth

Station Depth Elevation
Sierra Blanca 1 in 10280 ft
McKnight Cabin 0 in 9240 ft
Wesner Springs 2 in 11120 ft
Elk Cabin 122 in 8210 ft
Silver Creek Divide 2 in 9000 ft

Earthquake Activity

City Distance Mag. Time & Date
No recent earthquake activity has been reported nearby.
Minimum magnitude displayed is 2.5.

Coastal Water Temperatures

Place Temperature
No Stations Reporting

Nearby Weather Stations

Station Location Temp. Heat Index Dew Point Humidity Wind Precip. Elev Updated Type
Carlsbad, NM 71.7 °F 72 °F 65 °F 79% SSE  at  0.0 mph 0.00 in / hr 3158 ft 10:06 AM MDT Normal
Ridgecrest Subdivision, Carlsbad, NM 70.0 °F - 67 °F 89% South  at  10.0 mph 1.56 in / hr 3200 ft 10:08 AM MDT Rapid Fire
RAWS BATDRAW NM, Whites City, NM 63 °F - 60 °F 91% SSE  at  10 mph 0.00 in / hr 4424 ft 8:52 AM MDT MADIS

Show More Stations Show Fewer Stations